createdAt,value
2022-10-25T00:02:17.852Z,99753.78
2022-10-25T00:04:47.286Z,99749.97
2022-10-25T00:07:16.435Z,99752.72
2022-10-25T00:09:45.726Z,99754.97
2022-10-25T00:12:16.165Z,99750.88
2022-10-25T00:14:45.437Z,99753.03
2022-10-25T00:17:14.550Z,99751.38
2022-10-25T00:19:43.659Z,99747.78
2022-10-25T00:22:12.785Z,99762.38
2022-10-25T00:24:41.968Z,99753.22
2022-10-25T00:27:11.083Z,99753.53
2022-10-25T00:29:41.592Z,99753.69
2022-10-25T00:32:10.929Z,99759.16
2022-10-25T00:34:41.977Z,99758.38
2022-10-25T00:37:11.149Z,99760.72
2022-10-25T00:39:40.520Z,99756.41
2022-10-25T00:42:12.960Z,99759.06
2022-10-25T00:45:10.761Z,99767.16
2022-10-25T00:47:47.724Z,99767.88
2022-10-25T00:50:37.037Z,99767.88
2022-10-25T00:53:12.775Z,99766.63
2022-10-25T00:55:45.669Z,99770.94
2022-10-25T00:58:18.600Z,99765.97
2022-10-25T01:00:50.690Z,99778.75
2022-10-25T01:03:22.529Z,99769.63
2022-10-25T01:05:53.147Z,99778.94
2022-10-25T01:08:23.496Z,99778.03
2022-10-25T01:10:52.614Z,99790.06
2022-10-25T01:13:22.204Z,99789.56
2022-10-25T01:16:01.978Z,99788.25
2022-10-25T01:18:38.724Z,99785.78
2022-10-25T01:21:36.448Z,99785.25
2022-10-25T01:24:26.231Z,99791.81
2022-10-25T01:27:26.154Z,99794.34
2022-10-25T01:30:09.325Z,99788.91
2022-10-25T01:32:49.917Z,99797.59
2022-10-25T01:35:29.165Z,99807.81
2022-10-25T01:38:10.274Z,99809.13
2022-10-25T01:40:49.483Z,99808.53
2022-10-25T01:43:26.645Z,99804.56
2022-10-25T01:46:03.930Z,99807.31
2022-10-25T01:48:38.219Z,99816.63
2022-10-25T01:51:12.013Z,99814.97
2022-10-25T01:53:49.811Z,99812.66
2022-10-25T01:56:26.307Z,99821.97
2022-10-25T01:59:24.982Z,99816.53
2022-10-25T02:02:07.939Z,99817.25
2022-10-25T02:04:49.079Z,99812.16
2022-10-25T02:07:25.027Z,99810.50
2022-10-25T02:12:39.725Z,99816.31
2022-10-25T02:15:13.800Z,99814.22
2022-10-25T02:17:48.380Z,99820.69
2022-10-25T02:20:24.074Z,99820.88
2022-10-25T02:22:55.906Z,99817.09
2022-10-25T02:25:25.000Z,99820.44
2022-10-25T02:27:56.491Z,99823.19
2022-10-25T02:30:25.604Z,99827.09
2022-10-25T02:32:54.802Z,99827.00
2022-10-25T02:35:25.624Z,99825.38
2022-10-25T02:37:54.882Z,99828.56
2022-10-25T02:40:24.637Z,99827.25
2022-10-25T02:42:53.806Z,99830.63
2022-10-25T02:45:22.881Z,99836.22
2022-10-25T02:47:52.087Z,99837.13
2022-10-25T02:50:21.338Z,99834.81
2022-10-25T02:52:51.724Z,99831.22
2022-10-25T02:55:20.794Z,99835.09
2022-10-25T02:57:49.972Z,99828.75
2022-10-25T03:00:19.718Z,99831.72
2022-10-25T03:02:49.091Z,99833.28
2022-10-25T03:05:18.620Z,99827.25
2022-10-25T03:07:48.032Z,99830.00
2022-10-25T03:10:18.844Z,99834.69
2022-10-25T03:12:48.326Z,99839.38
2022-10-25T03:15:17.776Z,99836.81
2022-10-25T03:17:47.229Z,99837.88
2022-10-25T03:20:17.116Z,99830.44
2022-10-25T03:22:46.407Z,99827.88
2022-10-25T03:25:15.697Z,99827.53
2022-10-25T03:27:46.399Z,99832.34
2022-10-25T03:30:19.829Z,99831.03
2022-10-25T03:32:49.185Z,99828.06
2022-10-25T03:35:18.332Z,99835.22
2022-10-25T03:37:49.150Z,99834.19
2022-10-25T03:40:19.368Z,99840.91
2022-10-25T03:42:49.944Z,99843.28
2022-10-25T03:45:19.807Z,99841.34
2022-10-25T03:47:49.658Z,99840.41
2022-10-25T03:50:19.347Z,99845.81
2022-10-25T03:52:48.411Z,99841.56
2022-10-25T03:55:18.050Z,99848.38
2022-10-25T03:57:47.431Z,99847.88
2022-10-25T04:00:23.201Z,99848.59
2022-10-25T04:03:01.513Z,99848.00
2022-10-25T04:05:32.341Z,99854.00
2022-10-25T04:08:01.752Z,99854.69
2022-10-25T04:10:31.068Z,99857.78
2022-10-25T04:13:00.576Z,99860.03
2022-10-25T04:15:31.075Z,99858.09
2022-10-25T04:18:00.400Z,99859.38
2022-10-25T04:20:52.874Z,99865.00
2022-10-25T04:23:22.058Z,99862.94
2022-10-25T04:25:51.798Z,99862.84
2022-10-25T04:28:20.928Z,99864.47
2022-10-25T04:30:51.524Z,99865.81
2022-10-25T04:33:20.633Z,99865.81
2022-10-25T04:35:56.120Z,99859.72
2022-10-25T04:38:25.894Z,99865.03
2022-10-25T04:40:56.869Z,99857.06
2022-10-25T04:43:29.417Z,99852.19
2022-10-25T04:46:02.462Z,99859.53
2022-10-25T04:48:31.611Z,99857.41
2022-10-25T04:51:01.228Z,99866.59
2022-10-25T04:53:30.456Z,99862.09
2022-10-25T04:56:00.560Z,99862.59
2022-10-25T04:58:31.531Z,99864.88
2022-10-25T05:01:04.503Z,99855.22
2022-10-25T05:03:34.375Z,99860.63
2022-10-25T05:06:09.201Z,99855.25
2022-10-25T05:08:40.193Z,99859.59
2022-10-25T05:11:10.699Z,99863.03
2022-10-25T05:13:41.675Z,99860.53
2022-10-25T05:16:17.306Z,99865.69
2022-10-25T05:18:47.057Z,99869.06
2022-10-25T05:21:18.096Z,99877.72
2022-10-25T05:23:47.925Z,99883.63
2022-10-25T05:26:18.613Z,99884.41
2022-10-25T05:28:50.028Z,99882.47
2022-10-25T05:31:22.358Z,99880.19
2022-10-25T05:33:53.849Z,99878.59
2022-10-25T05:36:23.261Z,99874.22
2022-10-25T05:38:52.624Z,99870.28
2022-10-25T05:41:22.128Z,99881.66
2022-10-25T05:43:51.131Z,99882.47
2022-10-25T05:46:23.301Z,99880.28
2022-10-25T05:48:53.843Z,99886.94
2022-10-25T05:51:34.589Z,99879.59
2022-10-25T05:54:07.168Z,99888.25
2022-10-25T05:56:37.725Z,99892.84
2022-10-25T05:59:09.237Z,99891.75
2022-10-25T06:01:42.621Z,99892.53
2022-10-25T06:04:12.562Z,99899.34
2022-10-25T06:06:42.780Z,99893.88
2022-10-25T06:09:12.626Z,99891.88
2022-10-25T06:11:42.367Z,99889.88
2022-10-25T06:14:12.215Z,99884.22
2022-10-25T06:16:42.583Z,99880.56
2022-10-25T06:19:11.561Z,99880.44
2022-10-25T06:21:40.834Z,99882.13
2022-10-25T06:24:13.295Z,99876.78
2022-10-25T06:26:42.373Z,99880.66
2022-10-25T06:29:11.493Z,99879.94
2022-10-25T06:31:41.725Z,99877.91
2022-10-25T06:34:12.340Z,99882.69
2022-10-25T06:36:41.363Z,99879.94
2022-10-25T06:39:10.457Z,99879.56
2022-10-25T06:41:41.079Z,99877.16
2022-10-25T06:44:11.222Z,99874.56
2022-10-25T06:47:15.221Z,99872.53
2022-10-25T06:49:32.412Z,99886.88
2022-10-25T06:52:01.506Z,99878.44
2022-10-25T06:54:30.602Z,99880.63
2022-10-25T06:57:00.000Z,99883.84
2022-10-25T06:59:29.156Z,99881.25
2022-10-25T07:01:58.539Z,99886.78
2022-10-25T07:04:27.595Z,99888.19
2022-10-25T07:06:57.918Z,99891.25
2022-10-25T07:09:27.320Z,99887.88
2022-10-25T07:11:56.872Z,99888.38
2022-10-25T07:14:26.025Z,99887.31
2022-10-25T07:16:55.049Z,99884.69
2022-10-25T07:19:24.817Z,99890.09
2022-10-25T07:21:53.954Z,99890.88
2022-10-25T07:24:24.489Z,99898.25
2022-10-25T07:26:54.161Z,99897.06
2022-10-25T07:29:23.689Z,99891.03
2022-10-25T07:31:52.996Z,99889.63
2022-10-25T07:34:22.379Z,99896.09
2022-10-25T07:36:51.951Z,99901.94
2022-10-25T07:39:21.449Z,99905.78
2022-10-25T07:41:52.157Z,99906.66
2022-10-25T07:44:24.880Z,99900.41
2022-10-25T07:46:55.706Z,99897.84
2022-10-25T07:49:24.847Z,99902.81
2022-10-25T07:51:53.966Z,99901.16
2022-10-25T07:54:23.650Z,99898.44
2022-10-25T07:56:54.253Z,99901.03
2022-10-25T07:59:26.126Z,99896.44
2022-10-25T08:01:55.330Z,99900.47
2022-10-25T08:04:24.746Z,99895.53
2022-10-25T08:06:55.118Z,99895.81
2022-10-25T08:09:37.704Z,99909.44
2022-10-25T08:12:09.795Z,99906.66
2022-10-25T08:14:41.447Z,99909.81
2022-10-25T08:17:12.986Z,99915.41
2022-10-25T08:19:50.161Z,99920.09
2022-10-25T08:22:23.298Z,99920.00
2022-10-25T08:24:52.673Z,99915.75
2022-10-25T08:27:23.591Z,99917.53
2022-10-25T08:29:53.464Z,99917.31
2022-10-25T08:32:23.218Z,99918.28
2022-10-25T08:34:52.835Z,99923.88
2022-10-25T08:37:22.455Z,99925.69
2022-10-25T08:39:55.757Z,99915.44
2022-10-25T08:42:33.205Z,99908.84
2022-10-25T08:45:11.027Z,99915.31
2022-10-25T08:47:45.612Z,99920.09
2022-10-25T08:50:24.267Z,99908.63
2022-10-25T08:52:59.147Z,99906.78
2022-10-25T08:55:34.535Z,99910.50
2022-10-25T08:58:12.890Z,99903.63
2022-10-25T09:00:46.346Z,99911.28
2022-10-25T09:03:25.551Z,99910.03
2022-10-25T09:06:09.158Z,99911.19
2022-10-25T09:08:58.041Z,99910.81
2022-10-25T09:11:46.426Z,99907.28
2022-10-25T09:14:33.319Z,99899.16
2022-10-25T09:17:13.718Z,99906.59
2022-10-25T09:19:59.072Z,99900.00
2022-10-25T09:22:30.714Z,99903.06
2022-10-25T09:25:03.457Z,99900.25
2022-10-25T09:27:38.707Z,99892.81
2022-10-25T09:30:10.101Z,99902.66
2022-10-25T09:32:41.444Z,99898.69
2022-10-25T09:35:17.840Z,99903.44
2022-10-25T09:37:50.349Z,99900.41
2022-10-25T09:40:22.629Z,99903.66
2022-10-25T09:42:57.250Z,99912.53
2022-10-25T09:45:32.438Z,99917.94
2022-10-25T09:48:08.475Z,99909.41
2022-10-25T09:50:45.104Z,99900.06
2022-10-25T09:53:18.853Z,99908.28
2022-10-25T09:55:54.200Z,99895.13
2022-10-25T09:58:25.443Z,99910.97
2022-10-25T10:00:58.580Z,99903.13
2022-10-25T10:03:33.374Z,99901.53
2022-10-25T10:06:09.766Z,99900.06
2022-10-25T10:08:41.182Z,99900.31
2022-10-25T10:11:17.637Z,99901.00
2022-10-25T10:13:52.156Z,99899.69
2022-10-25T10:16:27.023Z,99898.53
2022-10-25T10:19:15.874Z,99909.22
2022-10-25T10:21:46.142Z,99916.63
2022-10-25T10:24:21.797Z,99911.59
2022-10-25T10:26:55.754Z,99904.59
2022-10-25T10:29:27.489Z,99909.31
2022-10-25T10:32:01.167Z,99911.25
2022-10-25T10:34:33.717Z,99900.69
2022-10-25T10:37:15.282Z,99900.00
2022-10-25T10:39:50.573Z,99910.66
2022-10-25T10:42:21.511Z,99912.13
2022-10-25T10:45:19.410Z,99917.53
2022-10-25T10:47:59.772Z,99911.47
2022-10-25T10:50:33.143Z,99913.84
2022-10-25T10:53:07.916Z,99919.00
2022-10-25T10:55:39.415Z,99903.88
2022-10-25T10:58:17.691Z,99917.13
2022-10-25T11:00:51.878Z,99920.06
2022-10-25T11:03:45.075Z,99909.41
2022-10-25T11:06:28.214Z,99917.28
2022-10-25T11:09:16.040Z,99911.34
2022-10-25T11:11:47.002Z,99906.91
2022-10-25T11:14:20.126Z,99915.09
2022-10-25T11:16:59.005Z,99917.13
2022-10-25T11:19:48.645Z,99912.81
2022-10-25T11:22:36.368Z,99906.84
2022-10-25T11:25:22.684Z,99909.69
2022-10-25T11:28:05.649Z,99910.13
2022-10-25T11:30:42.706Z,99909.69
2022-10-25T11:33:39.208Z,99905.53
2022-10-25T11:36:24.809Z,99903.63
2022-10-25T11:39:14.249Z,99903.97
2022-10-25T11:41:48.961Z,99907.97
2022-10-25T11:44:51.992Z,99911.13
2022-10-25T11:47:42.222Z,99916.03
2022-10-25T11:50:24.675Z,99911.78
2022-10-25T11:53:15.593Z,99905.88
2022-10-25T11:55:51.411Z,99911.88
2022-10-25T11:58:42.652Z,99916.31
2022-10-25T12:01:27.029Z,99912.56
2022-10-25T12:04:37.094Z,99925.53
2022-10-25T12:07:14.748Z,99915.97
2022-10-25T12:10:00.139Z,99913.03
2022-10-25T12:12:42.210Z,99911.72
2022-10-25T12:15:19.406Z,99911.03
2022-10-25T12:17:51.343Z,99907.97
2022-10-25T12:20:26.173Z,99908.38
2022-10-25T12:22:59.330Z,99902.09
2022-10-25T12:25:33.747Z,99908.38
2022-10-25T12:28:13.082Z,99909.13
2022-10-25T12:30:45.590Z,99909.00
2022-10-25T12:33:25.995Z,99907.09
2022-10-25T12:36:03.253Z,99901.56
2022-10-25T12:38:37.639Z,99912.81
2022-10-25T12:41:17.149Z,99909.38
2022-10-25T12:43:58.561Z,99905.59
2022-10-25T12:47:03.293Z,99915.56
2022-10-25T12:49:57.755Z,99917.53
2022-10-25T12:52:33.386Z,99918.00
2022-10-25T12:55:11.505Z,99915.66
2022-10-25T12:57:55.103Z,99928.78
2022-10-25T13:00:25.557Z,99927.38
2022-10-25T13:03:34.473Z,99935.63
2022-10-25T13:06:30.215Z,99931.59
2022-10-25T13:09:06.215Z,99932.16
2022-10-25T13:11:42.228Z,99942.00
2022-10-25T13:14:25.078Z,99931.69
2022-10-25T13:16:54.524Z,99938.53
2022-10-25T13:19:54.120Z,99944.97
2022-10-25T13:22:46.878Z,99943.19
2022-10-25T13:25:40.761Z,99944.75
2022-10-25T13:28:22.575Z,99946.63
2022-10-25T13:31:47.058Z,99944.25
2022-10-25T13:34:39.487Z,99934.16
2022-10-25T13:37:44.236Z,99947.78
2022-10-25T13:40:27.197Z,99945.81
2022-10-25T13:43:03.301Z,99954.09
2022-10-25T13:45:39.503Z,99946.91
2022-10-25T13:48:29.956Z,99944.56
2022-10-25T13:51:10.642Z,99948.25
2022-10-25T13:53:46.869Z,99946.78
2022-10-25T13:56:18.941Z,99949.31
2022-10-25T13:58:51.768Z,99946.59
2022-10-25T14:01:55.494Z,99953.72
2022-10-25T14:04:37.201Z,99954.81
2022-10-25T14:07:44.672Z,99954.44
2022-10-25T14:10:34.682Z,99952.22
2022-10-25T14:13:18.330Z,99956.63
2022-10-25T14:15:57.946Z,99950.91
2022-10-25T14:18:31.482Z,99949.22
2022-10-25T14:21:09.764Z,99947.19
2022-10-25T14:23:40.303Z,99959.84
2022-10-25T14:26:17.580Z,99956.69
2022-10-25T14:28:47.295Z,99953.50
2022-10-25T14:31:21.584Z,99957.69
2022-10-25T14:33:53.703Z,99963.28
2022-10-25T14:36:29.289Z,99971.16
2022-10-25T14:39:01.781Z,99970.25
2022-10-25T14:41:37.584Z,99977.22
2022-10-25T14:44:24.090Z,99968.59
2022-10-25T14:46:55.312Z,99963.41
2022-10-25T14:49:25.791Z,99977.56
2022-10-25T14:52:01.034Z,99966.50
2022-10-25T14:54:33.853Z,99973.50
2022-10-25T14:57:07.521Z,99970.72
2022-10-25T14:59:45.151Z,99974.25
2022-10-25T15:03:04.079Z,99981.91
2022-10-25T15:05:35.329Z,99982.91
2022-10-25T15:08:07.492Z,99981.81
2022-10-25T15:11:26.868Z,99980.91
2022-10-25T15:13:58.121Z,99975.97
2022-10-25T15:16:36.362Z,99979.97
2022-10-25T15:19:11.710Z,99978.06
2022-10-25T15:21:49.072Z,99976.44
2022-10-25T15:24:23.898Z,99978.03
2022-10-25T15:26:58.611Z,99983.44
2022-10-25T15:29:59.463Z,99980.44
2022-10-25T15:32:38.058Z,99985.16
2022-10-25T15:35:23.660Z,99988.97
2022-10-25T15:37:53.742Z,99987.91
2022-10-25T15:40:26.206Z,99992.78
2022-10-25T15:42:55.679Z,99997.91
2022-10-25T15:45:26.624Z,99992.38
2022-10-25T15:47:58.643Z,99997.41
2022-10-25T15:50:57.348Z,100001.22
2022-10-25T15:53:28.946Z,99990.16
2022-10-25T15:55:58.897Z,99997.25
2022-10-25T15:58:29.867Z,99995.53
2022-10-25T16:01:03.556Z,99993.31
2022-10-25T16:03:35.789Z,100000.25
2022-10-25T16:06:20.954Z,100002.56
2022-10-25T16:08:52.391Z,100001.25
2022-10-25T16:11:26.174Z,100008.22
2022-10-25T16:13:56.061Z,100010.56
2022-10-25T16:16:40.458Z,100008.34
2022-10-25T16:19:15.250Z,100010.13
2022-10-25T16:21:46.043Z,100014.44
2022-10-25T16:24:16.269Z,100021.66
2022-10-25T16:26:47.837Z,100021.06
2022-10-25T16:29:19.814Z,100012.19
2022-10-25T16:31:53.129Z,100018.22
2022-10-25T16:34:26.280Z,100022.03
2022-10-25T16:37:07.712Z,100027.56
2022-10-25T16:39:44.548Z,100021.56
2022-10-25T16:42:33.644Z,100029.41
2022-10-25T16:45:10.592Z,100023.06
2022-10-25T16:47:42.852Z,100030.97
2022-10-25T16:50:16.373Z,100022.91
2022-10-25T16:52:47.333Z,100027.13
2022-10-25T16:55:18.935Z,100032.00
2022-10-25T16:57:50.170Z,100033.78
2022-10-25T17:00:20.850Z,100038.88
2022-10-25T17:03:05.320Z,100034.47
2022-10-25T17:05:40.437Z,100041.44
2022-10-25T17:08:12.322Z,100044.31
2022-10-25T17:10:46.192Z,100032.63
2022-10-25T17:13:17.904Z,100032.13
2022-10-25T17:15:55.143Z,100039.00
2022-10-25T17:18:33.605Z,100027.72
2022-10-25T17:21:11.513Z,100030.38
2022-10-25T17:23:44.043Z,100036.75
2022-10-25T17:26:13.754Z,100035.91
2022-10-25T17:28:46.871Z,100029.16
2022-10-25T17:31:25.100Z,100024.16
2022-10-25T17:34:04.217Z,100026.78
2022-10-25T17:36:36.020Z,100029.28
2022-10-25T17:39:09.235Z,100023.03
2022-10-25T17:42:00.435Z,100032.84
2022-10-25T17:44:32.109Z,100030.16
2022-10-25T17:47:03.107Z,100037.63
2022-10-25T17:49:35.052Z,100038.00
2022-10-25T17:52:06.917Z,100042.81
2022-10-25T17:54:39.326Z,100038.69
2022-10-25T17:57:08.850Z,100042.56
2022-10-25T17:59:38.248Z,100038.66
2022-10-25T18:02:08.315Z,100049.09
2022-10-25T18:04:53.699Z,100044.97
2022-10-25T18:07:32.616Z,100050.03
2022-10-25T18:10:04.297Z,100055.31
2022-10-25T18:12:33.535Z,100048.69
2022-10-25T18:15:03.165Z,100054.28
2022-10-25T18:17:34.193Z,100051.28
2022-10-25T18:20:05.627Z,100046.06
2022-10-25T18:22:34.909Z,100043.59
2022-10-25T18:25:04.917Z,100042.06
2022-10-25T18:27:34.556Z,100039.06
2022-10-25T18:30:03.978Z,100041.09
2022-10-25T18:32:36.282Z,100044.47
2022-10-25T18:35:08.252Z,100044.31
2022-10-25T18:37:37.605Z,100043.84
2022-10-25T18:40:10.718Z,100050.22
2022-10-25T18:42:40.214Z,100044.28
2022-10-25T18:45:10.015Z,100042.06
2022-10-25T18:47:39.231Z,100043.06
2022-10-25T18:50:10.827Z,100044.00
2022-10-25T18:52:40.027Z,100042.78
2022-10-25T18:55:14.782Z,100055.44
2022-10-25T18:57:46.473Z,100051.75
2022-10-25T19:00:19.045Z,100049.13
2022-10-25T19:02:53.064Z,100052.38
2022-10-25T19:05:30.343Z,100051.97
2022-10-25T19:08:00.043Z,100052.69
2022-10-25T19:10:29.748Z,100053.00
2022-10-25T19:12:59.771Z,100055.88
2022-10-25T19:15:33.269Z,100054.53
2022-10-25T19:18:13.343Z,100055.88
2022-10-25T19:21:02.532Z,100062.91
2022-10-25T19:23:33.369Z,100065.13
2022-10-25T19:26:12.751Z,100062.50
2022-10-25T19:28:42.658Z,100050.84
2022-10-25T19:31:14.847Z,100046.81
2022-10-25T19:33:47.566Z,100053.16
2022-10-25T19:36:19.271Z,100050.44
2022-10-25T19:38:53.293Z,100049.53
2022-10-25T19:41:26.376Z,100053.28
2022-10-25T19:43:59.197Z,100056.38
2022-10-25T19:46:32.394Z,100055.25
2022-10-25T19:49:04.965Z,100056.72
2022-10-25T19:51:39.981Z,100056.88
2022-10-25T19:54:11.182Z,100054.03
2022-10-25T19:56:41.188Z,100056.38
2022-10-25T19:59:21.725Z,100057.06
2022-10-25T20:01:51.850Z,100056.78
2022-10-25T20:04:22.557Z,100060.03
2022-10-25T20:06:54.988Z,100064.44
2022-10-25T20:09:27.579Z,100061.03
2022-10-25T20:11:57.382Z,100065.09
2022-10-25T20:14:30.232Z,100056.06
2022-10-25T20:17:00.800Z,100062.44
2022-10-25T20:19:32.245Z,100058.38
2022-10-25T20:22:05.420Z,100059.75
2022-10-25T20:24:35.773Z,100054.50
2022-10-25T20:27:09.313Z,100045.84
2022-10-25T20:29:41.120Z,100047.69
2022-10-25T20:32:16.954Z,100045.31
2022-10-25T20:35:01.664Z,100043.78
2022-10-25T20:37:36.484Z,100046.44
2022-10-25T20:40:08.345Z,100051.31
2022-10-25T20:42:43.910Z,100052.75
2022-10-25T20:45:13.505Z,100052.03
2022-10-25T20:47:43.081Z,100053.66
2022-10-25T20:50:16.617Z,100046.28
2022-10-25T20:53:09.199Z,100048.03
2022-10-25T20:55:38.455Z,100040.19
2022-10-25T20:58:10.603Z,100036.50
2022-10-25T21:00:41.398Z,100044.16
2022-10-25T21:03:12.032Z,100045.78
2022-10-25T21:05:45.466Z,100046.69
2022-10-25T21:08:17.344Z,100049.00
2022-10-25T21:10:55.124Z,100042.47
2022-10-25T21:13:33.986Z,100048.28
2022-10-25T21:16:09.475Z,100046.69
2022-10-25T21:18:38.657Z,100049.31
2022-10-25T21:21:11.687Z,100050.25
2022-10-25T21:23:43.233Z,100051.94
2022-10-25T21:26:13.804Z,100049.84
2022-10-25T21:28:43.335Z,100067.41
2022-10-25T21:31:14.804Z,100056.22
2022-10-25T21:33:50.016Z,100057.03
2022-10-25T21:36:21.712Z,100062.19
2022-10-25T21:38:54.087Z,100061.16
2022-10-25T21:41:27.804Z,100061.31
2022-10-25T21:43:58.076Z,100061.03
2022-10-25T21:46:29.259Z,100069.78
2022-10-25T21:48:58.583Z,100060.50
2022-10-25T21:51:29.026Z,100065.81
2022-10-25T21:54:01.395Z,100058.72
2022-10-25T21:56:31.663Z,100074.34
2022-10-25T21:59:01.700Z,100074.06
2022-10-25T22:01:32.213Z,100075.25
2022-10-25T22:04:01.506Z,100074.06
2022-10-25T22:06:30.745Z,100070.81
2022-10-25T22:09:01.350Z,100076.94
2022-10-25T22:11:33.823Z,100081.00
2022-10-25T22:14:05.017Z,100077.31
2022-10-25T22:16:35.263Z,100074.81
2022-10-25T22:19:06.692Z,100082.16
2022-10-25T22:21:39.378Z,100086.09
2022-10-25T22:24:11.602Z,100085.56
2022-10-25T22:26:42.400Z,100084.28
2022-10-25T22:29:12.784Z,100077.66
2022-10-25T22:31:43.295Z,100081.50
2022-10-25T22:34:12.525Z,100084.03
2022-10-25T22:36:42.646Z,100076.03
2022-10-25T22:39:13.551Z,100084.66
2022-10-25T22:41:43.655Z,100079.75
2022-10-25T22:44:12.685Z,100083.03
2022-10-25T22:46:41.856Z,100088.56
2022-10-25T22:49:11.021Z,100095.41
2022-10-25T22:51:40.324Z,100091.25
2022-10-25T22:54:09.752Z,100089.31
2022-10-25T22:56:40.352Z,100089.34
2022-10-25T22:59:09.481Z,100084.50
2022-10-25T23:01:39.256Z,100093.69
2022-10-25T23:04:09.794Z,100091.91
2022-10-25T23:06:42.614Z,100107.44
2022-10-25T23:09:16.857Z,100101.72
2022-10-25T23:11:47.388Z,100104.50
2022-10-25T23:14:17.517Z,100101.59
2022-10-25T23:16:47.067Z,100112.25
2022-10-25T23:19:16.304Z,100110.09
2022-10-25T23:21:45.221Z,100120.72
2022-10-25T23:24:14.265Z,100117.72
2022-10-25T23:26:43.325Z,100123.94
2022-10-25T23:29:14.230Z,100122.50
2022-10-25T23:31:46.926Z,100122.03
2022-10-25T23:34:15.953Z,100120.91
2022-10-25T23:36:45.336Z,100117.66
2022-10-25T23:39:14.486Z,100121.09
2022-10-25T23:41:44.156Z,100125.31
2022-10-25T23:44:14.825Z,100120.63
2022-10-25T23:46:43.918Z,100129.66
2022-10-25T23:49:12.877Z,100129.84
2022-10-25T23:51:42.975Z,100135.03
2022-10-25T23:54:12.041Z,100142.25
2022-10-25T23:56:41.110Z,100135.66
2022-10-25T23:59:10.392Z,100138.19
